Terminal Aerodrome Forecast
Issued by NWS

Current Version | Previous Version | Graphics & Text | Print | Product List | Glossary On
Versions: 1 2 3 4 5 6 7 8 9 10 11 12 13 14 15 16 17 18 19 20 21 22 23 24
000
FTUS41 KILN 300345 AAA
TAFLUK
TAF AMD
KLUK 300345Z 3004/3024 00000KT 4SM BR BKN200
      TEMPO 3008/3012 2SM BR SCT200
     FM301400 21008KT P6SM BKN040
     FM301800 20008KT P6SM VCSH BKN040=

USA.gov is the U.S. government's official web portal to all federal, state and local government web resources and services.